Time;durP1;ratioP1;P1;durP2;ratioP2;P2;SDS_P1;SDS_P2;PMS_P1;PMS_P2;Temp;Humidity;BMP_temperature;BMP_pressure;BME280_temperature;BME280_humidity;BME280_pressure;Samples;Min_cycle;Max_cycle;Signal;HPM_P1;HPM_P2
2022/07/23 00:00:54;;;;;;;0.98;0.43;;;23.40;58.00;;;;;;4508554;31;20223;-68
2022/07/23 00:03:19;;;;;;;1.80;0.50;;;23.40;57.90;;;;;;4508556;31;20088;-69
2022/07/23 00:05:45;;;;;;;1.35;0.50;;;23.40;57.90;;;;;;4508169;31;20073;-68
2022/07/23 00:08:11;;;;;;;1.10;0.50;;;23.40;57.90;;;;;;4508196;31;20073;-68
2022/07/23 00:10:38;;;;;;;1.50;0.40;;;23.40;57.90;;;;;;4508696;31;20231;-68
2022/07/23 00:13:04;;;;;;;0.80;0.40;;;23.40;57.90;;;;;;4508135;31;20081;-68
2022/07/23 00:15:30;;;;;;;1.48;0.40;;;23.40;58.00;;;;;;4508388;31;20088;-68
2022/07/23 00:17:55;;;;;;;1.48;0.60;;;23.40;58.00;;;;;;4508329;31;20075;-68
2022/07/23 00:20:21;;;;;;;1.20;0.60;;;23.40;58.00;;;;;;4508327;31;20135;-68
2022/07/23 00:22:52;;;;;;;1.40;0.60;;;23.40;58.00;;;;;;4494165;31;20076;-68
2022/07/23 00:25:19;;;;;;;1.52;0.70;;;23.40;57.90;;;;;;4508192;31;20108;-68
2022/07/23 00:27:45;;;;;;;0.70;0.40;;;23.40;58.90;;;;;;4507957;31;20153;-68
2022/07/23 00:30:12;;;;;;;1.13;0.63;;;23.40;58.00;;;;;;4493466;31;20068;-68
2022/07/23 00:32:49;;;;;;;1.30;0.40;;;23.40;58.00;;;;;;4508033;31;20204;-68
2022/07/23 00:35:16;;;;;;;1.40;0.50;;;23.40;58.00;;;;;;4480838;31;20514;-68
2022/07/23 00:37:42;;;;;;;1.85;0.50;;;23.40;58.00;;;;;;4508171;31;20087;-68
2022/07/23 00:40:08;;;;;;;0.80;0.40;;;23.30;58.00;;;;;;4507757;31;20097;-69
2022/07/23 00:42:34;;;;;;;1.17;0.50;;;23.40;58.00;;;;;;4508320;31;20087;-68
2022/07/23 00:45:00;;;;;;;0.93;0.47;;;23.40;58.00;;;;;;4507667;31;20068;-68
2022/07/23 00:47:26;;;;;;;1.00;0.40;;;23.30;58.00;;;;;;4493505;31;20525;-68
2022/07/23 00:49:51;;;;;;;0.82;0.25;;;23.40;58.00;;;;;;4508301;31;20068;-68
2022/07/23 00:52:19;;;;;;;1.10;0.60;;;23.30;58.00;;;;;;4508215;31;20107;-68
2022/07/23 00:54:45;;;;;;;2.25;0.63;;;23.30;58.00;;;;;;4507641;31;20072;-68
2022/07/23 00:57:11;;;;;;;1.98;0.60;;;23.30;58.00;;;;;;4507889;31;20405;-68
2022/07/23 00:59:39;;;;;;;1.00;0.50;;;23.30;58.00;;;;;;4508127;31;20182;-68
2022/07/23 01:02:05;;;;;;;0.45;0.20;;;23.30;58.00;;;;;;4507962;31;20069;-68
2022/07/23 01:04:30;;;;;;;1.13;0.25;;;23.30;58.10;;;;;;4507710;31;20053;-68
2022/07/23 01:06:57;;;;;;;1.30;0.40;;;23.30;58.10;;;;;;4507125;31;20538;-68
2022/07/23 01:09:23;;;;;;;1.73;0.50;;;23.30;58.00;;;;;;4507770;31;20533;-68
2022/07/23 01:11:50;;;;;;;0.98;0.47;;;23.30;58.10;;;;;;4507869;31;20242;-68
2022/07/23 01:14:17;;;;;;;1.50;0.40;;;23.30;58.10;;;;;;4507871;31;20136;-68
2022/07/23 01:16:45;;;;;;;0.98;0.40;;;23.30;58.10;;;;;;4507846;31;20110;-69
2022/07/23 01:19:12;;;;;;;1.67;0.30;;;23.30;58.10;;;;;;4493592;31;20448;-68
2022/07/23 01:21:40;;;;;;;1.75;0.55;;;23.30;58.10;;;;;;4507920;31;20163;-68
2022/07/23 01:24:07;;;;;;;1.10;0.28;;;23.30;58.10;;;;;;4507762;31;20173;-68
2022/07/23 01:26:33;;;;;;;1.25;0.40;;;23.30;58.10;;;;;;4507775;31;20095;-68
2022/07/23 01:28:59;;;;;;;1.17;0.50;;;23.30;58.10;;;;;;4507661;31;20224;-68
2022/07/23 01:31:26;;;;;;;1.70;0.60;;;23.30;58.10;;;;;;4507139;31;20073;-68
2022/07/23 01:33:52;;;;;;;1.08;0.43;;;23.30;58.10;;;;;;4507605;31;20397;-68
2022/07/23 01:36:18;;;;;;;0.77;0.40;;;23.30;58.20;;;;;;4507592;31;20109;-69
2022/07/23 01:38:44;;;;;;;0.65;0.40;;;23.30;58.10;;;;;;4507800;31;20083;-68
2022/07/23 01:41:10;;;;;;;0.80;0.30;;;23.30;58.20;;;;;;4507493;31;20065;-68
2022/07/23 01:43:36;;;;;;;1.00;0.30;;;23.30;58.20;;;;;;4507553;31;20402;-68
2022/07/23 01:46:01;;;;;;;0.98;0.50;;;23.30;58.10;;;;;;4507703;31;20463;-68
2022/07/23 01:48:27;;;;;;;0.70;0.30;;;23.30;58.20;;;;;;4507577;31;20085;-68
2022/07/23 01:50:53;;;;;;;0.75;0.45;;;23.30;58.20;;;;;;4507758;31;20065;-68
2022/07/23 01:53:19;;;;;;;1.00;0.43;;;23.30;58.20;;;;;;4493175;31;20194;-68
2022/07/23 01:55:46;;;;;;;0.70;0.40;;;23.20;58.10;;;;;;4507401;31;20099;-69
2022/07/23 01:58:12;;;;;;;1.00;0.40;;;23.20;58.10;;;;;;4507694;31;20073;-69
2022/07/23 02:00:38;;;;;;;0.43;0.30;;;23.20;58.10;;;;;;4507024;31;20457;-68
2022/07/23 02:03:04;;;;;;;0.60;0.30;;;23.30;58.20;;;;;;4507403;31;20210;-68
2022/07/23 02:05:31;;;;;;;1.73;0.40;;;23.20;58.10;;;;;;4507295;31;20165;-68
2022/07/23 02:07:58;;;;;;;0.77;0.30;;;23.20;58.20;;;;;;4507085;31;20155;-69
2022/07/23 02:10:24;;;;;;;0.47;0.30;;;23.20;58.20;;;;;;4507325;31;20083;-69
2022/07/23 02:12:50;;;;;;;0.45;0.30;;;23.20;58.20;;;;;;4507029;31;20084;-68
2022/07/23 02:15:16;;;;;;;1.05;0.50;;;23.20;58.20;;;;;;4507253;31;20084;-68
2022/07/23 02:17:42;;;;;;;0.77;0.47;;;23.20;58.20;;;;;;4492777;31;20471;-68
2022/07/23 02:20:09;;;;;;;0.35;0.20;;;23.20;58.20;;;;;;4509121;31;20566;-69
2022/07/23 02:22:35;;;;;;;1.05;0.40;;;23.20;58.20;;;;;;4510313;31;20138;-69
2022/07/23 02:25:05;;;;;;;0.77;0.25;;;23.20;58.20;;;;;;4510013;31;20087;-68
2022/07/23 02:27:31;;;;;;;1.02;0.43;;;23.20;58.20;;;;;;4509989;31;20084;-68
2022/07/23 02:29:57;;;;;;;1.08;0.32;;;23.20;58.20;;;;;;4509951;31;20076;-68
2022/07/23 02:32:24;;;;;;;1.20;0.30;;;23.20;58.20;;;;;;4509534;31;20118;-69
2022/07/23 02:34:56;;;;;;;0.30;0.30;;;23.20;58.30;;;;;;4510194;31;20092;-68
2022/07/23 02:37:22;;;;;;;1.20;0.47;;;23.20;58.30;;;;;;4495339;31;20068;-68
2022/07/23 02:39:48;;;;;;;0.30;0.20;;;23.10;58.20;;;;;;4509991;31;20056;-73
2022/07/23 02:42:15;;;;;;;0.52;0.38;;;23.10;58.20;;;;;;4509812;31;20096;-68
2022/07/23 02:44:41;;;;;;;0.80;0.30;;;23.10;58.20;;;;;;4509686;31;20139;-68
2022/07/23 02:47:07;;;;;;;0.52;0.30;;;23.10;58.20;;;;;;4509796;31;20069;-68
2022/07/23 02:49:33;;;;;;;0.50;0.40;;;23.10;58.20;;;;;;4509917;31;20077;-68
2022/07/23 02:51:59;;;;;;;0.77;0.40;;;23.10;58.20;;;;;;4509408;31;20135;-68
2022/07/23 02:54:24;;;;;;;1.08;0.40;;;23.10;58.30;;;;;;4495399;31;20073;-68
2022/07/23 02:56:51;;;;;;;0.32;0.30;;;23.10;58.30;;;;;;4509782;31;20088;-69
2022/07/23 02:59:18;;;;;;;0.65;0.38;;;23.10;58.30;;;;;;4509208;31;20075;-68
2022/07/23 03:01:44;;;;;;;0.60;0.30;;;23.10;58.30;;;;;;4509849;31;20156;-68
2022/07/23 03:04:10;;;;;;;1.30;0.47;;;23.10;58.30;;;;;;4509477;31;20143;-68
2022/07/23 03:06:36;;;;;;;0.95;0.38;;;23.10;58.30;;;;;;4494810;31;20151;-68
2022/07/23 03:09:03;;;;;;;1.08;0.38;;;23.10;58.30;;;;;;4509503;31;20195;-68
2022/07/23 03:11:29;;;;;;;0.77;0.43;;;23.10;58.30;;;;;;4509411;31;20476;-68
2022/07/23 03:13:54;;;;;;;0.95;0.40;;;23.10;58.30;;;;;;4509364;31;20069;-68
2022/07/23 03:16:20;;;;;;;0.52;0.28;;;23.10;58.30;;;;;;4509558;31;20060;-68
2022/07/23 03:18:46;;;;;;;0.55;0.30;;;23.10;58.30;;;;;;4509060;31;20069;-68
2022/07/23 03:21:12;;;;;;;1.42;0.52;;;23.10;58.30;;;;;;4509223;31;20077;-68
2022/07/23 03:23:39;;;;;;;1.50;0.47;;;23.10;58.30;;;;;;4509179;31;20698;-68
2022/07/23 03:26:04;;;;;;;0.60;0.32;;;23.10;58.30;;;;;;4508857;31;20577;-68
2022/07/23 03:28:30;;;;;;;0.80;0.55;;;23.10;58.30;;;;;;4495112;31;20077;-68
2022/07/23 03:30:56;;;;;;;1.10;0.40;;;23.10;58.30;;;;;;4508675;31;20496;-68
2022/07/23 03:33:22;;;;;;;2.17;0.47;;;23.10;58.30;;;;;;4508816;31;20077;-68
2022/07/23 03:35:49;;;;;;;0.60;0.30;;;23.10;58.30;;;;;;4509054;31;20093;-68
2022/07/23 03:38:15;;;;;;;1.23;0.40;;;23.10;58.30;;;;;;4509008;31;20060;-68
2022/07/23 03:40:41;;;;;;;0.90;0.40;;;23.10;58.40;;;;;;4508733;31;20080;-68
2022/07/23 03:43:07;;;;;;;0.50;0.32;;;23.00;58.30;;;;;;4508909;31;20096;-68
2022/07/23 03:45:33;;;;;;;0.40;0.20;;;23.00;58.30;;;;;;4509007;31;20084;-67
2022/07/23 03:47:59;;;;;;;0.93;0.40;;;23.00;58.30;;;;;;4508916;31;20429;-67
2022/07/23 03:50:26;;;;;;;1.08;0.45;;;23.00;58.30;;;;;;4508794;31;20169;-67
2022/07/23 03:52:51;;;;;;;0.70;0.20;;;23.10;58.40;;;;;;4508828;31;20080;-67
2022/07/23 03:55:17;;;;;;;1.10;0.40;;;23.00;58.30;;;;;;4508480;31;20087;-67
2022/07/23 03:57:44;;;;;;;1.42;0.40;;;23.00;58.30;;;;;;4508871;31;20112;-67
2022/07/23 04:00:11;;;;;;;0.50;0.30;;;23.00;58.30;;;;;;4508471;31;20579;-67
2022/07/23 04:02:37;;;;;;;0.47;0.40;;;23.00;58.40;;;;;;4508611;31;20529;-67
2022/07/23 04:05:04;;;;;;;0.50;0.25;;;23.00;58.40;;;;;;4508563;31;20198;-67
2022/07/23 04:07:30;;;;;;;0.55;0.32;;;23.00;58.40;;;;;;4508502;31;20181;-67
2022/07/23 04:09:56;;;;;;;0.40;0.20;;;23.00;58.40;;;;;;4508483;31;20456;-67
2022/07/23 04:12:22;;;;;;;1.05;0.50;;;23.00;58.40;;;;;;4508724;31;20081;-67
2022/07/23 04:14:48;;;;;;;0.82;0.40;;;23.00;58.40;;;;;;4508441;31;20097;-67
2022/07/23 04:17:14;;;;;;;1.40;0.38;;;23.00;58.50;;;;;;4508381;31;20099;-67
2022/07/23 04:19:41;;;;;;;0.80;0.30;;;23.00;58.50;;;;;;4508373;31;20092;-67
2022/07/23 04:22:12;;;;;;;0.40;0.20;;;23.00;58.40;;;;;;4508356;31;20156;-68
2022/07/23 04:24:38;;;;;;;0.52;0.25;;;23.00;58.50;;;;;;4508293;31;20064;-67
2022/07/23 04:27:04;;;;;;;0.52;0.30;;;23.00;58.50;;;;;;4508000;31;20080;-67
2022/07/23 04:29:31;;;;;;;0.60;0.35;;;23.00;58.50;;;;;;4508400;31;20089;-67
2022/07/23 04:31:57;;;;;;;0.80;0.40;;;23.00;58.60;;;;;;4507754;31;20084;-67
2022/07/23 04:34:23;;;;;;;0.82;0.30;;;23.00;58.50;;;;;;4508211;31;20223;-67
2022/07/23 04:36:49;;;;;;;1.48;0.40;;;23.00;58.60;;;;;;4507858;31;20328;-67
2022/07/23 04:39:15;;;;;;;0.63;0.30;;;23.00;58.50;;;;;;4507937;31;20517;-67
2022/07/23 04:41:41;;;;;;;1.05;0.40;;;23.00;58.60;;;;;;4507478;31;20146;-67
2022/07/23 04:44:07;;;;;;;0.77;0.30;;;23.00;58.60;;;;;;4508078;31;20069;-67
2022/07/23 04:46:33;;;;;;;0.30;0.20;;;23.00;58.60;;;;;;4507983;31;20493;-67
2022/07/23 04:48:58;;;;;;;0.50;0.30;;;23.00;58.60;;;;;;4508125;31;20615;-67
2022/07/23 04:51:24;;;;;;;0.60;0.30;;;23.00;58.60;;;;;;4507985;31;20624;-70
2022/07/23 04:53:51;;;;;;;1.10;0.30;;;23.00;58.60;;;;;;4507975;31;20513;-67
2022/07/23 04:56:17;;;;;;;0.45;0.32;;;22.90;58.50;;;;;;4507890;31;20073;-67
2022/07/23 04:58:43;;;;;;;0.35;0.30;;;23.00;58.60;;;;;;4508170;31;20092;-67
2022/07/23 05:01:09;;;;;;;1.05;0.38;;;23.00;58.60;;;;;;4507990;31;20096;-67
2022/07/23 05:03:35;;;;;;;0.63;0.30;;;22.90;58.50;;;;;;4507860;31;20397;-67
2022/07/23 05:06:01;;;;;;;1.20;0.32;;;22.90;58.60;;;;;;4493231;31;20153;-68
2022/07/23 05:08:27;;;;;;;0.80;0.40;;;22.90;58.50;;;;;;4507523;31;20422;-67
2022/07/23 05:10:52;;;;;;;0.43;0.30;;;22.90;58.60;;;;;;4507741;31;20057;-67
2022/07/23 05:13:18;;;;;;;1.17;0.50;;;22.90;58.60;;;;;;4507984;31;20544;-68
2022/07/23 05:15:45;;;;;;;0.32;0.30;;;22.90;58.60;;;;;;4507704;31;20072;-67
2022/07/23 05:18:10;;;;;;;0.93;0.40;;;22.90;58.60;;;;;;4507747;31;20073;-67
2022/07/23 05:20:37;;;;;;;1.00;0.40;;;22.90;58.60;;;;;;4507730;31;20073;-67
2022/07/23 05:23:03;;;;;;;0.50;0.30;;;22.90;58.60;;;;;;4507394;31;20081;-67
2022/07/23 05:25:29;;;;;;;0.63;0.30;;;22.90;58.60;;;;;;4507643;31;20069;-68
2022/07/23 05:27:55;;;;;;;0.45;0.20;;;22.90;58.60;;;;;;4507968;31;20080;-68
2022/07/23 05:30:21;;;;;;;0.55;0.40;;;23.00;58.70;;;;;;4507190;31;20095;-67
2022/07/23 05:32:46;;;;;;;0.40;0.25;;;22.90;58.60;;;;;;4507468;31;20390;-68
2022/07/23 05:35:12;;;;;;;1.33;0.40;;;22.90;58.60;;;;;;4507598;31;20080;-67
2022/07/23 05:37:38;;;;;;;0.20;0.20;;;22.90;58.60;;;;;;4507597;31;20057;-67
2022/07/23 05:40:07;;;;;;;0.40;0.20;;;22.90;58.60;;;;;;4507815;31;20447;-67
2022/07/23 05:42:37;;;;;;;0.55;0.30;;;22.90;58.60;;;;;;4507505;31;20160;-68
2022/07/23 05:45:04;;;;;;;0.32;0.30;;;22.90;59.00;;;;;;4507571;31;20161;-67
2022/07/23 05:47:40;;;;;;;1.17;0.30;;;22.90;58.60;;;;;;4492989;31;20108;-68
2022/07/23 05:50:06;;;;;;;0.40;0.30;;;22.90;58.70;;;;;;4507672;31;20562;-67
2022/07/23 05:52:32;;;;;;;1.02;0.40;;;22.90;58.70;;;;;;4507456;31;20097;-67
2022/07/23 05:54:58;;;;;;;0.68;0.25;;;22.90;58.70;;;;;;4510409;31;20406;-67
2022/07/23 05:57:23;;;;;;;0.90;0.32;;;22.90;58.80;;;;;;4510490;31;20073;-68
2022/07/23 05:59:50;;;;;;;0.40;0.20;;;22.90;58.70;;;;;;4510379;31;20436;-67
2022/07/23 06:02:16;;;;;;;0.50;0.20;;;22.90;58.70;;;;;;4496136;31;20482;-67
2022/07/23 06:04:42;;;;;;;0.95;0.25;;;22.90;58.70;;;;;;4510354;31;20549;-67
2022/07/23 06:07:07;;;;;;;0.38;0.20;;;22.90;58.70;;;;;;4510336;31;20127;-68
2022/07/23 06:09:33;;;;;;;0.17;0.10;;;22.90;58.70;;;;;;4495968;31;20057;-67
2022/07/23 06:11:59;;;;;;;0.70;0.22;;;22.90;58.80;;;;;;4510077;31;20105;-67
2022/07/23 06:14:25;;;;;;;0.28;0.20;;;22.90;58.80;;;;;;4510064;31;20391;-67
2022/07/23 06:16:50;;;;;;;0.65;0.28;;;22.90;58.80;;;;;;4509760;31;20176;-68
2022/07/23 06:19:17;;;;;;;0.25;0.20;;;22.90;58.80;;;;;;4509969;31;20138;-68
2022/07/23 06:21:43;;;;;;;0.47;0.20;;;22.90;58.80;;;;;;4509921;31;20494;-68
2022/07/23 06:24:09;;;;;;;0.60;0.30;;;22.90;58.80;;;;;;4510209;31;20064;-67
2022/07/23 06:26:34;;;;;;;0.40;0.15;;;22.90;58.80;;;;;;4510161;31;20061;-67
2022/07/23 06:29:00;;;;;;;0.40;0.20;;;22.90;58.80;;;;;;4510079;31;20370;-67
2022/07/23 06:31:26;;;;;;;0.70;0.20;;;22.90;58.80;;;;;;4509727;31;20088;-67
2022/07/23 06:33:52;;;;;;;0.65;0.30;;;22.90;58.90;;;;;;4510210;31;20163;-67
2022/07/23 06:36:18;;;;;;;0.20;0.15;;;22.90;58.90;;;;;;4495387;31;20714;-67
2022/07/23 06:38:43;;;;;;;0.68;0.20;;;22.90;58.90;;;;;;4509885;31;20073;-68
2022/07/23 06:41:09;;;;;;;1.00;0.28;;;22.90;58.90;;;;;;4509545;31;20545;-67
2022/07/23 06:43:35;;;;;;;0.45;0.20;;;22.90;58.90;;;;;;4509898;31;20075;-68
2022/07/23 06:46:01;;;;;;;0.57;0.30;;;22.90;58.90;;;;;;4509692;31;20632;-67
2022/07/23 06:48:28;;;;;;;0.10;0.10;;;22.90;58.90;;;;;;4509754;31;20064;-68
2022/07/23 06:50:54;;;;;;;0.73;0.30;;;22.90;58.90;;;;;;4509738;31;20491;-68
2022/07/23 06:53:20;;;;;;;1.95;0.20;;;22.90;58.90;;;;;;4509726;31;20076;-68
2022/07/23 06:55:46;;;;;;;0.82;0.30;;;22.90;58.90;;;;;;4509605;31;20099;-67
2022/07/23 06:58:13;;;;;;;0.32;0.22;;;22.90;59.00;;;;;;4509344;31;20407;-68
2022/07/23 07:00:40;;;;;;;0.80;0.40;;;22.90;58.90;;;;;;4509462;31;20116;-68
2022/07/23 07:03:06;;;;;;;0.82;0.20;;;22.90;58.90;;;;;;4509278;31;20504;-68
2022/07/23 07:05:32;;;;;;;0.90;0.30;;;22.90;58.80;;;;;;4508729;31;20084;-68
2022/07/23 07:07:58;;;;;;;0.30;0.20;;;22.90;58.90;;;;;;4509485;31;20088;-67
2022/07/23 07:10:24;;;;;;;1.50;0.30;;;22.90;58.90;;;;;;4509663;31;20072;-68
2022/07/23 07:12:50;;;;;;;2.58;0.20;;;23.00;58.90;;;;;;4509361;31;20531;-67
2022/07/23 07:15:15;;;;;;;3.30;0.30;;;23.00;58.80;;;;;;4495047;31;20069;-68
2022/07/23 07:17:42;;;;;;;0.63;0.20;;;23.10;58.80;;;;;;4509328;31;20076;-67
2022/07/23 07:20:09;;;;;;;2.72;0.30;;;23.10;58.80;;;;;;4509193;31;20088;-68
2022/07/23 07:22:35;;;;;;;0.98;0.30;;;23.10;58.80;;;;;;4509429;31;20085;-68
2022/07/23 07:25:01;;;;;;;3.55;0.30;;;23.10;58.70;;;;;;4509302;31;20076;-68
2022/07/23 07:27:27;;;;;;;2.38;0.20;;;23.10;58.60;;;;;;4509093;31;20390;-68
2022/07/23 07:29:52;;;;;;;0.52;0.25;;;23.10;58.60;;;;;;4509017;31;20468;-69
2022/07/23 07:32:18;;;;;;;1.75;0.30;;;23.10;58.50;;;;;;4508655;31;20091;-68
2022/07/23 07:34:44;;;;;;;1.33;0.40;;;23.10;58.40;;;;;;4509245;31;20064;-68
2022/07/23 07:37:10;;;;;;;1.75;0.40;;;23.10;58.30;;;;;;4508815;31;20085;-68
2022/07/23 07:39:36;;;;;;;2.15;0.43;;;23.10;58.30;;;;;;4494723;31;20529;-68
2022/07/23 07:42:02;;;;;;;1.85;0.40;;;23.10;58.30;;;;;;4494441;31;20398;-68
2022/07/23 07:44:27;;;;;;;1.20;0.30;;;23.10;58.20;;;;;;4494571;31;20165;-68
2022/07/23 07:46:53;;;;;;;1.17;0.40;;;23.10;58.10;;;;;;4508724;31;20068;-68
2022/07/23 07:49:19;;;;;;;0.38;0.30;;;23.10;57.90;;;;;;4494519;31;20531;-68
2022/07/23 07:51:45;;;;;;;0.47;0.28;;;23.10;57.90;;;;;;4494187;31;20080;-68
2022/07/23 07:54:12;;;;;;;1.75;0.35;;;23.10;57.90;;;;;;4508855;31;20089;-68
2022/07/23 07:56:38;;;;;;;3.35;0.30;;;23.10;57.90;;;;;;4508712;31;20069;-68
2022/07/23 07:59:04;;;;;;;1.05;0.20;;;23.10;57.80;;;;;;4508688;31;20128;-67
2022/07/23 08:01:31;;;;;;;2.40;0.60;;;23.10;57.80;;;;;;4508562;31;20178;-68
2022/07/23 08:03:58;;;;;;;0.35;0.10;;;23.10;57.70;;;;;;4508529;31;20221;-68
2022/07/23 08:06:24;;;;;;;2.33;0.30;;;23.20;57.70;;;;;;4508285;31;20085;-68
2022/07/23 08:08:50;;;;;;;1.75;0.32;;;23.20;57.70;;;;;;4508272;31;20305;-68
2022/07/23 08:11:16;;;;;;;2.58;0.60;;;23.20;57.70;;;;;;4508097;31;20503;-67
2022/07/23 08:13:44;;;;;;;0.50;0.30;;;23.20;57.70;;;;;;4508598;31;20145;-67
2022/07/23 08:16:11;;;;;;;0.20;0.10;;;23.20;57.60;;;;;;4508014;31;20465;-68
2022/07/23 08:18:37;;;;;;;0.60;0.30;;;23.20;57.50;;;;;;4508259;31;20579;-68
2022/07/23 08:21:05;;;;;;;0.52;0.30;;;23.20;57.50;;;;;;4508263;31;20085;-68
2022/07/23 08:23:31;;;;;;;0.52;0.30;;;23.30;57.50;;;;;;4508004;31;20549;-70
2022/07/23 08:25:59;;;;;;;0.60;0.30;;;23.30;57.40;;;;;;4494131;31;20072;-68
2022/07/23 08:28:25;;;;;;;1.05;0.40;;;23.30;57.50;;;;;;4508049;31;20226;-68
2022/07/23 08:30:51;;;;;;;1.63;0.40;;;23.30;57.30;;;;;;4507960;31;20140;-69
2022/07/23 08:33:18;;;;;;;1.38;0.50;;;23.30;57.30;;;;;;4508065;31;20206;-68
2022/07/23 08:35:47;;;;;;;2.72;0.40;;;23.30;57.20;;;;;;4508129;31;20129;-68
2022/07/23 08:38:15;;;;;;;2.15;0.43;;;23.40;57.20;;;;;;4508419;31;20120;-67
2022/07/23 08:40:44;;;;;;;1.90;0.30;;;23.40;57.00;;;;;;4507895;31;20084;-68
2022/07/23 08:43:16;;;;;;;1.55;0.32;;;23.40;57.00;;;;;;4507761;31;20112;-68
2022/07/23 08:45:47;;;;;;;1.17;0.30;;;23.40;56.80;;;;;;4508110;31;20090;-67
2022/07/23 08:48:21;;;;;;;1.55;0.47;;;23.40;56.60;;;;;;4508077;31;20077;-69
2022/07/23 08:50:50;;;;;;;1.30;0.30;;;23.40;56.40;;;;;;4508129;31;20064;-67
2022/07/23 08:53:18;;;;;;;1.98;0.38;;;23.40;56.20;;;;;;4508139;31;20604;-67
2022/07/23 08:55:49;;;;;;;4.50;0.50;;;23.50;56.30;;;;;;4507840;31;20223;-68
2022/07/23 08:58:15;;;;;;;2.10;0.65;;;23.50;56.20;;;;;;4507928;31;20077;-67
2022/07/23 09:00:41;;;;;;;3.55;0.63;;;23.60;56.40;;;;;;4507987;31;20135;-68
2022/07/23 09:03:16;;;;;;;1.73;0.50;;;23.60;56.30;;;;;;4507894;31;20088;-66
2022/07/23 09:05:42;;;;;;;1.10;0.40;;;23.60;56.30;;;;;;4507853;31;20080;-67
2022/07/23 09:08:16;;;;;;;3.45;0.60;;;23.60;56.10;;;;;;4508044;31;20072;-67
2022/07/23 09:10:51;;;;;;;3.30;0.65;;;23.70;56.00;;;;;;4480399;31;20072;-67
2022/07/23 09:13:22;;;;;;;2.55;0.50;;;23.70;55.90;;;;;;4507796;31;20158;-68
2022/07/23 09:15:50;;;;;;;11.75;0.88;;;23.70;56.00;;;;;;4508015;31;20096;-67
2022/07/23 09:18:16;;;;;;;2.05;0.50;;;23.70;55.90;;;;;;4507725;31;20073;-67
2022/07/23 09:20:44;;;;;;;1.52;0.50;;;23.70;55.90;;;;;;4507693;31;20069;-67
2022/07/23 09:23:10;;;;;;;1.98;0.40;;;23.70;56.60;;;;;;4507694;31;20174;-68
2022/07/23 09:25:35;;;;;;;3.70;0.70;;;23.70;55.70;;;;;;4493038;31;20080;-68
2022/07/23 09:28:02;;;;;;;2.25;0.45;;;23.70;56.50;;;;;;4508399;31;20089;-68
2022/07/23 09:30:31;;;;;;;0.95;0.32;;;23.70;55.50;;;;;;4510638;31;20112;-69
2022/07/23 09:33:05;;;;;;;2.13;0.40;;;23.70;55.80;;;;;;4510647;31;20080;-67
2022/07/23 09:35:55;;;;;;;1.83;0.50;;;23.80;55.20;;;;;;4510493;31;20077;-67
2022/07/23 09:38:22;;;;;;;0.88;0.40;;;23.80;55.10;;;;;;4510431;31;20087;-66
2022/07/23 09:41:08;;;;;;;0.95;0.50;;;23.80;55.10;;;;;;4510625;31;20085;-66
2022/07/23 09:43:35;;;;;;;2.05;0.32;;;23.80;54.90;;;;;;4510696;31;20176;-65
2022/07/23 09:46:24;;;;;;;2.75;0.60;;;23.70;54.90;;;;;;4510697;31;20073;-68
2022/07/23 09:48:51;;;;;;;4.07;0.50;;;23.70;54.10;;;;;;4510609;31;20077;-68
2022/07/23 09:53:58;;;;;;;3.05;0.40;;;23.70;54.00;;;;;;4510821;31;20084;-67
2022/07/23 09:56:27;;;;;;;0.85;0.20;;;23.60;53.60;;;;;;4510437;31;20418;-67
2022/07/23 09:59:04;;;;;;;1.52;0.40;;;23.60;53.20;;;;;;4510586;31;20076;-68
2022/07/23 10:01:32;;;;;;;2.80;0.43;;;23.60;52.40;;;;;;4510631;31;20119;-67
2022/07/23 10:03:59;;;;;;;0.98;0.30;;;23.50;52.20;;;;;;4510406;31;20487;-66
2022/07/23 10:06:26;;;;;;;2.35;0.60;;;23.50;52.40;;;;;;4510305;31;20182;-66
2022/07/23 10:08:55;;;;;;;2.22;0.40;;;23.50;52.30;;;;;;4510382;31;20080;-67
2022/07/23 10:11:21;;;;;;;1.38;0.50;;;23.40;52.30;;;;;;4510545;31;20084;-66
2022/07/23 10:13:54;;;;;;;2.15;0.50;;;23.40;52.20;;;;;;4495764;31;20387;-67
2022/07/23 10:16:21;;;;;;;4.10;0.40;;;23.40;52.20;;;;;;4496119;31;20108;-67
2022/07/23 10:18:48;;;;;;;4.63;0.50;;;23.50;52.30;;;;;;4509915;31;20076;-68
2022/07/23 10:21:21;;;;;;;6.90;0.60;;;23.50;52.50;;;;;;4510341;31;20164;-67
2022/07/23 10:24:04;;;;;;;2.22;0.50;;;23.50;52.60;;;;;;4510476;31;20088;-67
2022/07/23 10:26:50;;;;;;;1.60;0.40;;;23.40;52.60;;;;;;4510318;31;20065;-67
2022/07/23 10:29:49;;;;;;;1.80;0.50;;;23.40;52.10;;;;;;4510128;31;20088;-67
2022/07/23 10:32:26;;;;;;;1.40;0.43;;;23.40;52.30;;;;;;4509735;31;20083;-67
2022/07/23 10:35:48;;;;;;;3.50;0.30;;;23.40;52.40;;;;;;4509976;31;20064;-68
2022/07/23 10:38:24;;;;;;;1.27;0.47;;;23.40;52.30;;;;;;4445204;32;20177;-68
2022/07/23 10:41:01;;;;;;;1.25;0.30;;;23.40;52.50;;;;;;4499695;31;20083;-67
2022/07/23 10:43:28;;;;;;;1.33;0.40;;;23.40;52.60;;;;;;4509839;31;20223;-67
2022/07/23 10:45:55;;;;;;;1.98;0.50;;;23.40;52.70;;;;;;4510013;31;20073;-67
2022/07/23 10:48:26;;;;;;;2.30;0.40;;;23.40;52.80;;;;;;4509737;31;20132;-68
2022/07/23 10:51:14;;;;;;;0.88;0.47;;;23.30;52.50;;;;;;4509686;31;20085;-67
2022/07/23 10:53:53;;;;;;;2.97;0.73;;;23.30;52.50;;;;;;4510026;31;20101;-67
2022/07/23 10:56:49;;;;;;;0.98;0.40;;;23.40;52.60;;;;;;4509354;31;20061;-67
2022/07/23 10:59:15;;;;;;;1.75;0.40;;;23.40;52.70;;;;;;4509639;31;20502;-67
2022/07/23 11:01:40;;;;;;;2.80;0.40;;;23.30;52.50;;;;;;4509230;31;20109;-68
2022/07/23 11:04:07;;;;;;;1.95;0.50;;;23.30;52.40;;;;;;4509806;31;20224;-67
2022/07/23 11:06:48;;;;;;;1.17;0.50;;;23.30;52.50;;;;;;4509518;31;20264;-67
2022/07/23 11:09:28;;;;;;;1.33;0.40;;;23.30;52.20;;;;;;4509152;31;20165;-67
2022/07/23 11:12:12;;;;;;;1.80;0.47;;;23.30;52.40;;;;;;4509432;31;20087;-67
2022/07/23 11:15:03;;;;;;;3.00;0.30;;;23.30;52.80;;;;;;4509382;31;20490;-68
2022/07/23 11:17:31;;;;;;;2.15;0.30;;;23.30;52.50;;;;;;4509226;31;20492;-67
2022/07/23 11:20:08;;;;;;;2.15;0.40;;;23.30;52.60;;;;;;4509321;31;20421;-67
2022/07/23 11:22:37;;;;;;;3.05;0.30;;;23.30;52.70;;;;;;4509214;31;20427;-67
2022/07/23 11:25:04;;;;;;;1.48;0.43;;;23.30;52.70;;;;;;4509079;31;20230;-67
2022/07/23 11:27:39;;;;;;;4.53;0.40;;;23.30;52.80;;;;;;4509350;31;20556;-67
2022/07/23 11:30:07;;;;;;;5.75;0.40;;;23.40;52.90;;;;;;4509027;31;20061;-68
2022/07/23 11:32:38;;;;;;;1.35;0.40;;;23.40;53.00;;;;;;4508901;31;20165;-67
2022/07/23 11:35:27;;;;;;;1.95;0.50;;;23.40;53.00;;;;;;4509397;31;20092;-67
2022/07/23 11:38:04;;;;;;;1.20;0.40;;;23.40;53.20;;;;;;4509338;31;20157;-67
2022/07/23 11:40:30;;;;;;;0.70;0.40;;;23.40;53.20;;;;;;4509115;31;20513;-67
2022/07/23 11:43:02;;;;;;;3.47;0.50;;;23.40;53.30;;;;;;4508939;31;20080;-68
2022/07/23 11:45:43;;;;;;;1.30;0.52;;;23.50;53.40;;;;;;4508874;31;20069;-67
2022/07/23 11:48:28;;;;;;;9.60;0.95;;;23.50;53.40;;;;;;4508966;31;20405;-67
2022/07/23 11:50:55;;;;;;;2.42;0.45;;;23.40;53.50;;;;;;4508386;31;20537;-67
2022/07/23 11:53:27;;;;;;;2.25;0.50;;;23.40;53.50;;;;;;4508876;31;20077;-67
2022/07/23 11:55:54;;;;;;;1.10;0.47;;;23.40;53.60;;;;;;4509112;31;20057;-68
2022/07/23 11:58:21;;;;;;;2.33;0.70;;;23.40;53.60;;;;;;4508442;31;20539;-67
2022/07/23 12:00:47;;;;;;;2.25;0.50;;;23.40;53.70;;;;;;4508551;31;20069;-68
2022/07/23 12:03:14;;;;;;;2.75;0.63;;;23.40;53.70;;;;;;4508933;31;20091;-68
2022/07/23 12:05:40;;;;;;;3.05;0.60;;;23.40;53.60;;;;;;4508492;31;20123;-67
2022/07/23 12:08:08;;;;;;;4.93;0.60;;;23.40;53.70;;;;;;4508579;31;20073;-67
2022/07/23 12:10:36;;;;;;;1.85;0.50;;;23.40;53.80;;;;;;4508846;31;20084;-69
2022/07/23 12:13:04;;;;;;;3.20;0.57;;;23.40;53.90;;;;;;4508501;31;20073;-68
2022/07/23 12:15:38;;;;;;;3.03;1.00;;;23.40;53.90;;;;;;4508708;31;20104;-70
2022/07/23 12:18:04;;;;;;;3.25;0.82;;;23.40;53.80;;;;;;4508332;31;20088;-69
2022/07/23 12:20:36;;;;;;;1.48;0.40;;;23.40;54.00;;;;;;4494096;31;20096;-71
2022/07/23 12:23:07;;;;;;;1.73;0.50;;;23.50;54.20;;;;;;4508563;31;20080;-70
2022/07/23 12:25:35;;;;;;;1.27;0.40;;;23.40;54.10;;;;;;4508432;31;20145;-70
2022/07/23 12:28:07;;;;;;;2.78;0.57;;;23.50;54.10;;;;;;4480799;31;20116;-70
2022/07/23 12:30:53;;;;;;;1.63;0.47;;;23.50;54.10;;;;;;4493509;31;20170;-68
2022/07/23 12:33:34;;;;;;;2.80;0.63;;;23.60;54.10;;;;;;4476458;32;20406;-68
2022/07/23 12:36:03;;;;;;;1.80;0.40;;;23.50;54.10;;;;;;4476429;31;20073;-68
2022/07/23 12:38:40;;;;;;;1.58;0.52;;;23.50;54.00;;;;;;4476553;32;20081;-68
2022/07/23 12:41:06;;;;;;;1.38;0.50;;;23.60;54.00;;;;;;4476632;32;20195;-68
2022/07/23 12:43:36;;;;;;;4.20;0.70;;;23.60;54.00;;;;;;4476508;32;20079;-68
2022/07/23 12:46:10;;;;;;;4.63;0.85;;;23.60;54.00;;;;;;4476366;32;20093;-68
2022/07/23 12:48:54;;;;;;;2.08;0.57;;;23.60;54.00;;;;;;4475395;32;20087;-68
2022/07/23 12:51:32;;;;;;;1.60;0.50;;;23.60;53.90;;;;;;4476458;32;20121;-68
2022/07/23 12:54:06;;;;;;;3.35;0.65;;;23.60;53.90;;;;;;4476760;31;20057;-68
2022/07/23 12:56:38;;;;;;;2.15;0.52;;;23.60;53.90;;;;;;4476349;32;20504;-68